Flight Track Log - Related Links

Times and Time Zones

All times are in EDT time to prevent confusion due to time zone crossing. See the ASA640 flight status page for this flight to view local times or setup timezone preferences in your user account.

Time Position Orientation Groundspeed Altitude Reporting Facility
EDT Latitude Longitude Course Direction KTS MPH feet Rate Location/Type
Fri 08:20:21 PM 48.7667 -122.5333 155° Southeast 150 173 1,100  Level Vancouver Center
Fri 08:21:21 PM 48.7167 -122.5667 204° Southwest 170 196 3,000 2,350 Climbing Vancouver Center
Fri 08:22:21 PM 48.6500 -122.5833 189° South 230 265 5,800 2,950 Climbing Vancouver Center
Fri 08:23:21 PM 48.5983 -122.6000 192° South 254 292 8,900 1,587 Climbing Seattle Center
Fri 08:24:00 PM 48.1529 -122.0748 154° Southeast  Level Estimated
Fri 08:24:22 PM 48.5281 -122.6258 194° South 262 302 9,000  Level Seattle Center
Fri 08:25:00 PM 48.0463 -121.9990 155° Southeast  Level Estimated
Fri 08:25:23 PM 48.4572 -122.6506 193° South 263 303 10,200  Level Seattle Center
Fri 08:26:24 PM 48.3767 -122.6792 193° South 314 361 12,100 2,361 Climbing Seattle Center
Fri 08:27:25 PM 48.2881 -122.7092 193° South 332 382 15,000 2,803 Climbing Seattle Center
Fri 08:28:26 PM 48.1906 -122.6967 175° South 372 428 17,800 2,311 Climbing Seattle Center
Fri 08:29:27 PM 48.0906 -122.6436 160° South 383 441 19,700 2,262 Climbing Seattle Center
Fri 08:30:28 PM 47.9639 -122.5783 161° South 400 460 22,400 2,262 Climbing Seattle Center
Fri 08:31:29 PM 47.8528 -122.5222 161° South 420 483 24,300 1,721 Climbing Seattle Center
Fri 08:32:30 PM 47.7378 -122.4636 161° South 437 503 25,900 1,475 Climbing Seattle Center
Fri 08:33:31 PM 47.6286 -122.4075 161° South 449 517 27,300 1,475 Climbing Seattle Center
Fri 08:34:32 PM 47.4836 -122.3344 161° South 468 539 28,900 1,426 Climbing Seattle Center
Fri 08:35:33 PM 47.3581 -122.2772 163° South 473 544 30,200 1,574 Climbing Seattle Center
Fri 08:36:34 PM 47.2322 -122.2286 165° South 474 545 32,100 1,770 Climbing Seattle Center
Fri 08:37:35 PM 47.1086 -122.1800 165° South 468 539 33,800 1,426 Climbing Seattle Center
Fri 08:38:36 PM 46.9864 -122.1328 165° South 460 529 35,000 590 Climbing Seattle Center
Fri 08:39:37 PM 46.8633 -122.0844 165° South 463 533 35,000  Level Seattle Center
Fri 08:40:39 PM 46.7406 -122.0369 165° South 462 532 35,000  Level Seattle Center
Fri 08:41:40 PM 46.5933 -121.9797 165° South 463 533 35,000  Level Seattle Center
Fri 08:42:41 PM 46.4706 -121.9314 165° South 462 532 35,000  Level Seattle Center
Fri 08:43:42 PM 46.3475 -121.8833 165° South 463 533 35,000  Level Seattle Center
Fri 08:44:43 PM 46.2128 -121.8325 165° South 463 533 35,000  Level Seattle Center
Fri 08:45:44 PM 46.0900 -121.7850 165° South 459 528 35,000  Level Seattle Center
Fri 08:46:45 PM 45.9667 -121.7383 165° South 458 527 35,000  Level Seattle Center
Fri 08:47:46 PM 45.8431 -121.6925 166° South 460 529 35,000  Level Seattle Center
Fri 08:48:47 PM 45.7200 -121.6469 166° South 457 526 35,000  Level Seattle Center
Fri 08:49:48 PM 45.5986 -121.6014 165° South 450 518 35,000  Level Seattle Center
Fri 08:50:49 PM 45.4739 -121.5553 165° South 460 529 35,000  Level Seattle Center
Fri 08:51:50 PM 45.3450 -121.5067 165° South 463 533 35,000  Level Seattle Center
Fri 08:52:51 PM 45.2183 -121.4606 166° South 467 537 35,000  Level Seattle Center
Fri 08:53:52 PM 45.0922 -121.4139 165° South 469 540 35,000  Level Seattle Center
Fri 08:54:53 PM 44.9667 -121.3672 165° South 467 537 35,000  Level Seattle Center
Fri 08:55:54 PM 44.8406 -121.3214 166° South 467 537 35,000  Level Seattle Center
Fri 08:56:55 PM 44.7139 -121.2767 166° South 469 540 35,000  Level Seattle Center
Fri 08:57:56 PM 44.5875 -121.2308 166° South 469 540 35,000  Level Seattle Center
Fri 08:58:57 PM 44.4608 -121.1856 166° South 469 540 35,000  Level Seattle Center
Fri 08:59:58 PM 44.3339 -121.1411 166° South 470 541 35,000  Level Seattle Center
Fri 09:00:59 PM 44.1861 -121.0864 165° South 471 542 35,000  Level Seattle Center
Fri 09:02:00 PM 44.0658 -121.0472 167° South 473 544 35,000  Level Seattle Center
Fri 09:03:01 PM 43.9406 -121.0036 166° South 466 536 35,000  Level Seattle Center
Fri 09:04:02 PM 43.8150 -120.9603 166° South 464 534 35,000  Level Seattle Center
Fri 09:05:03 PM 43.6903 -120.9167 166° South 462 532 35,000  Level Seattle Center
Fri 09:06:03 PM 43.5472 -120.8683 166° South 465 535 35,000  Level Seattle Center
Fri 09:07:04 PM 43.4231 -120.8239 165° South 462 532 35,000  Level Seattle Center
Fri 09:08:05 PM 43.2997 -120.7822 166° South 457 526 35,000  Level Seattle Center
Fri 09:09:06 PM 43.1778 -120.7400 166° South 452 520 35,000  Level Seattle Center
Fri 09:10:07 PM 43.0536 -120.6989 166° South 458 527 35,000  Level Seattle Center
Fri 09:11:08 PM 42.9297 -120.6567 166° South 459 528 35,000  Level Seattle Center
Fri 09:12:09 PM 42.8061 -120.6136 166° South 458 527 35,000  Level Seattle Center
Fri 09:13:10 PM 42.6825 -120.5731 166° South 456 525 35,000  Level Seattle Center
Fri 09:14:11 PM 42.5586 -120.5308 166° South 457 526 35,000  Level Seattle Center
Fri 09:15:12 PM 42.4361 -120.4836 164° South 458 527 35,000  Level Seattle Center
Fri 09:16:13 PM 42.3161 -120.4267 161° South 457 526 35,000  Level Seattle Center
Fri 09:17:14 PM 42.1947 -120.3722 162° South 459 528 35,000  Level Seattle Center
Fri 09:18:15 PM 42.0739 -120.3153 161° South 459 528 35,000  Level Seattle Center
Fri 09:19:16 PM 41.9533 -120.2594 161° South 459 528 35,000  Level Seattle Center
Fri 09:20:16 PM 41.8300 -120.2044 162° South 463 533 35,000  Level Seattle Center
Fri 09:21:17 PM 41.7097 -120.1497 161° South 460 529 35,000  Level Seattle Center
Fri 09:22:18 PM 41.5675 -120.0822 160° South 453 521 35,000  Level Seattle Center
Fri 09:23:19 PM 41.4461 -120.0281 162° South 457 526 35,000  Level Seattle Center
Fri 09:24:20 PM 41.3247 -119.9739 161° South 460 529 35,000  Level Seattle Center
Fri 09:25:21 PM 41.2028 -119.9197 162° South 460 529 35,000  Level Seattle Center
Fri 09:26:22 PM 41.0817 -119.8650 161° South 460 529 35,000  Level Seattle Center
Fri 09:27:22 PM 40.9611 -119.8106 161° South 457 526 35,000  Level Seattle Center
Fri 09:28:23 PM 40.8403 -119.7567 161° South 458 527 35,000  Level Seattle Center
Fri 09:28:57 PM 40.7683 -119.7244 161° South 458 527 35,000  Level Oakland Center
Fri 09:29:58 PM 40.6464 -119.6717 162° South 461 531 35,000  Level Oakland Center
Fri 09:31:00 PM 40.5328 -119.5825 149° Southeast 460 529 35,000  Level Oakland Center
Fri 09:32:01 PM 40.4247 -119.4944 148° Southeast 458 527 35,000  Level Oakland Center
Fri 09:33:03 PM 40.3172 -119.4092 149° Southeast 453 521 35,000  Level Oakland Center
Fri 09:34:04 PM 40.2086 -119.3225 149° Southeast 457 526 35,000  Level Oakland Center
Fri 09:35:05 PM 40.0997 -119.2361 149° Southeast 458 527 35,000  Level Oakland Center
Fri 09:36:07 PM 39.9908 -119.1486 148° Southeast 460 529 35,000  Level Oakland Center
Fri 09:37:08 PM 39.8825 -119.0639 149° Southeast 456 525 35,000  Level Oakland Center
Fri 09:38:09 PM 39.7503 -118.9594 149° Southeast 461 531 35,000  Level Oakland Center
Fri 09:39:10 PM 39.6406 -118.8742 149° Southeast 460 529 35,000  Level Oakland Center
Fri 09:40:12 PM 39.5311 -118.7883 149° Southeast 459 528 35,000  Level Oakland Center
Fri 09:41:13 PM 39.4328 -118.7114 149° Southeast 460 529 35,000  Level Oakland Center
Fri 09:42:14 PM 39.3225 -118.6256 149° Southeast 462 532 35,000  Level Oakland Center
Fri 09:43:15 PM 39.1917 -118.5258 149° Southeast 456 525 35,000  Level Oakland Center
Fri 09:44:17 PM 39.0836 -118.4411 149° Southeast 455 524 35,000  Level Oakland Center
Fri 09:45:18 PM 38.9739 -118.3578 149° Southeast 456 525 35,000 -344 Level Oakland Center
Fri 09:46:19 PM 38.8650 -118.2744 149° Southeast 456 525 34,300 -836 Descending Oakland Center
Fri 09:47:20 PM 38.7581 -118.1939 150° Southeast 449 517 33,300 -634 Descending Oakland Center
Fri 09:48:22 PM 38.6522 -118.1133 149° Southeast 444 511 33,000 -146 Descending Oakland Center
Fri 09:49:23 PM 38.5456 -118.0322 149° Southeast 447 514 33,000  Level Oakland Center
Fri 09:50:24 PM 38.4375 -117.9503 149° Southeast 451 519 33,000  Level Oakland Center
Fri 09:51:26 PM 38.3303 -117.8694 149° Southeast 449 517 33,000  Level Oakland Center
Fri 09:52:27 PM 38.2014 -117.7731 150° Southeast 449 517 33,000  Level Oakland Center
Fri 09:53:28 PM 38.0947 -117.6931 149° Southeast 448 516 33,000  Level Oakland Center
Fri 09:54:29 PM 37.9878 -117.6139 150° Southeast 448 516 33,000  Level Oakland Center
Fri 09:55:31 PM 37.8808 -117.5347 150° Southeast 448 516 33,000  Level Oakland Center
Fri 09:56:32 PM 37.7758 -117.4561 149° Southeast 443 510 33,000  Level Oakland Center
Fri 09:57:33 PM 37.6692 -117.3775 150° Southeast 445 512 33,000  Level Oakland Center
Fri 09:58:34 PM 37.5622 -117.3003 150° Southeast 445 512 33,000  Level Oakland Center
Fri 09:59:36 PM 37.4544 -117.2211 150° Southeast 448 516 33,000  Level Oakland Center
Fri 10:00:37 PM 37.3250 -117.1269 150° Southeast 449 517 33,000 -148 Level Oakland Center
Fri 10:01:38 PM 37.2175 -117.0483 150° Southeast 448 516 32,700 -395 Descending Oakland Center
Fri 10:01:53 PM 37.1964 -117.0342 152° Southeast 446 513 32,500 -1,082 Descending Los Angeles Center
Fri 10:02:39 PM 37.1139 -116.9744 150° Southeast 431 496 31,600 -1,065 Descending Oakland Center
Fri 10:03:40 PM 37.0139 -116.9017 150° Southeast 417 480 30,600 -976 Descending Oakland Center
Fri 10:04:42 PM 36.9131 -116.8292 150° Southeast 417 480 29,600 -923 Descending Oakland Center
Fri 10:04:58 PM 36.8925 -116.8136 149° Southeast 419 482 29,400 -462 Descending Los Angeles Center
Fri 10:06:00 PM 36.7911 -116.7347 148° Southeast 425 489 29,000 -195 Descending Los Angeles Center
Fri 10:07:01 PM 36.6997 -116.6047 131° Southeast 415 478 29,000 -1,610 Level Los Angeles Center
Fri 10:08:03 PM 36.6222 -116.4928 131° Southeast 425 489 25,700 -2,226 Descending Los Angeles Center
Fri 10:09:05 PM 36.5442 -116.3814 131° Southeast 426 490 24,400 -1,645 Descending Los Angeles Center
Fri 10:10:07 PM 36.4686 -116.2739 131° Southeast 408 470 22,300 -2,000 Descending Los Angeles Center
Fri 10:11:08 PM 36.3947 -116.1683 131° Southeast 399 459 20,300 -2,000 Descending Los Angeles Center
Fri 10:11:37 PM 36.3536 -116.1189 136° Southeast 397 457 19,300 -1,548 Descending Los Angeles Center
Fri 10:12:10 PM 36.3342 -116.0861 126° Southeast 385 443 18,700 -1,800 Descending Los Angeles Center
Fri 10:12:37 PM 36.2839 -116.0214 134° Southeast 374 430 17,500 -2,226 Descending Los Angeles Center
Fri 10:13:12 PM 36.2503 -115.9692 129° Southeast 372 428 16,400 -1,279 Descending Los Angeles Center
Fri 10:13:38 PM 36.2189 -115.9278 133° Southeast 367 422 16,200 -387 Descending Los Angeles Center
Fri 10:14:14 PM 36.1886 -115.8697 123° Southeast 336 387 16,000 -700 Descending Los Angeles Center
Fri 10:14:38 PM 36.1778 -115.8347 111° Southeast 325 374 15,500 -1,151 Descending Los Angeles Center
Fri 10:15:27 PM 36.1583 -115.7708 111° Southeast 315 362 14,600 -1,562 Descending Los Angeles Center
Fri 10:15:51 PM 36.1389 -115.7117 112° Southeast 307 353 13,600 -1,839 Descending Los Angeles Center
Fri 10:16:29 PM 36.1200 -115.6511 111° Southeast 305 351 12,700 -960 Descending Los Angeles Center
Fri 10:17:31 PM 36.0875 -115.5506 112° Southeast 297 342 12,000 -803 Descending Los Angeles Center
Fri 10:18:36 PM 36.0522 -115.4472 113° Southeast 305 351 11,000 -488 Descending Los Angeles Center
Fri 10:19:34 PM 36.0286 -115.3622 109° East 295 339 11,000 -550 Level Los Angeles Center
Fri 10:20:36 PM 36.0236 -115.2692 94° East 273 314 9,900 -1,065 Descending Los Angeles Center
Fri 10:21:38 PM 36.0167 -115.1772 95° East 271 312 8,800 -919 Descending Los Angeles Center
Fri 10:22:40 PM 36.0108 -115.0911 95° East 259 298 8,000 -732 Descending Los Angeles Center
Fri 10:23:41 PM 36.0061 -115.0036 94° East 223 257 7,300 -893 Descending Los Angeles Center
Fri 10:24:41 PM 36.0172 -114.9483 76° East 199 229 6,200 -1,240 Descending Los Angeles Center
Fri 10:25:42 PM 36.0686 -114.9553 354° North 179 206 4,800 -1,105 Descending Los Angeles Center
Fri 10:25:57 PM 36.0689 -114.9514 85° East 190 219 4,800 -935 Level Los Angeles Center
Fri 10:26:59 PM 36.0733 -115.0256 274° West 185 213 3,600 -1,062 Descending Los Angeles Center
Fri 10:27:50 PM 36.0739 -115.0786 271° West 162 186 2,800 -780 Descending Los Angeles Center
Fri 10:29:02 PM 36.0742 -115.1369 270° West 168 193 2,000 -667 Descending Los Angeles Center

Login

Don't have an account? Register now (free) for customized features, flight alerts, and more!